createdAt,value
2022-09-06T00:00:14.179Z,11.00
2022-09-06T00:02:42.097Z,11.50
2022-09-06T00:05:10.460Z,12.30
2022-09-06T00:07:37.658Z,11.17
2022-09-06T00:10:05.191Z,11.57
2022-09-06T00:12:32.743Z,13.83
2022-09-06T00:14:59.728Z,11.73
2022-09-06T00:17:26.643Z,10.07
2022-09-06T00:19:53.868Z,11.57
2022-09-06T00:22:20.781Z,11.53
2022-09-06T00:24:47.719Z,15.87
2022-09-06T00:27:14.598Z,10.13
2022-09-06T00:29:41.519Z,10.03
2022-09-06T00:32:09.181Z,10.07
2022-09-06T00:34:36.128Z,10.17
2022-09-06T00:37:03.018Z,10.07
2022-09-06T00:39:29.987Z,15.20
2022-09-06T00:41:56.997Z,12.67
2022-09-06T00:44:24.135Z,13.23
2022-09-06T00:46:53.980Z,13.57
2022-09-06T00:49:29.099Z,14.87
2022-09-06T00:52:06.403Z,13.93
2022-09-06T00:54:33.455Z,14.00
2022-09-06T00:57:01.330Z,13.53
2022-09-06T00:59:31.232Z,13.10
2022-09-06T01:01:59.130Z,11.03
2022-09-06T01:04:26.763Z,11.60
2022-09-06T01:07:24.964Z,10.60
2022-09-06T01:10:21.882Z,10.90
2022-09-06T01:13:14.518Z,11.37
2022-09-06T01:16:04.776Z,12.30
2022-09-06T01:18:59.586Z,10.90
2022-09-06T01:21:32.765Z,10.97
2022-09-06T01:24:37.318Z,10.27
2022-09-06T01:27:48.015Z,11.00
2022-09-06T01:30:18.541Z,11.50
2022-09-06T01:33:16.176Z,11.27
2022-09-06T01:36:02.937Z,11.73
2022-09-06T01:38:29.973Z,11.20
2022-09-06T01:40:56.833Z,15.00
2022-09-06T01:43:32.006Z,11.47
2022-09-06T01:46:13.187Z,16.17
2022-09-06T01:49:05.047Z,12.27
2022-09-06T01:51:46.747Z,12.27
2022-09-06T01:54:26.731Z,15.23
2022-09-06T01:57:12.586Z,14.17
2022-09-06T02:00:19.634Z,13.83
2022-09-06T02:03:02.917Z,13.40
2022-09-06T02:05:32.584Z,15.33
2022-09-06T02:08:06.504Z,66.03
2022-09-06T02:11:08.634Z,77.00
2022-09-06T02:13:52.864Z,111.33
2022-09-06T02:16:26.051Z,47.70
2022-09-06T02:19:15.935Z,35.07
2022-09-06T02:21:45.792Z,46.53
2022-09-06T02:24:28.450Z,43.07
2022-09-06T02:26:55.414Z,44.67
2022-09-06T02:29:22.531Z,33.67
2022-09-06T02:31:59.322Z,35.43
2022-09-06T02:34:26.332Z,26.63
2022-09-06T02:36:55.809Z,35.70
2022-09-06T02:39:22.772Z,31.27
2022-09-06T02:41:49.810Z,27.83
2022-09-06T02:44:16.756Z,33.90
2022-09-06T02:46:43.643Z,23.87
2022-09-06T02:49:10.527Z,25.37
2022-09-06T02:51:39.194Z,21.30
2022-09-06T02:54:06.588Z,24.90
2022-09-06T02:56:34.504Z,20.87
2022-09-06T02:59:01.389Z,30.30
2022-09-06T03:01:28.352Z,21.90
2022-09-06T03:03:56.059Z,12.77
2022-09-06T03:06:23.062Z,13.03
2022-09-06T03:08:50.192Z,13.27
2022-09-06T03:11:17.171Z,13.30
2022-09-06T03:13:44.056Z,12.80
2022-09-06T03:16:11.027Z,14.27
2022-09-06T03:18:37.998Z,12.83
2022-09-06T03:21:05.227Z,13.90
2022-09-06T03:23:32.148Z,12.40
2022-09-06T03:25:59.070Z,14.03
2022-09-06T03:28:26.312Z,12.77
2022-09-06T03:30:53.696Z,12.83
2022-09-06T03:33:21.149Z,13.30
2022-09-06T03:35:50.395Z,13.80
2022-09-06T03:38:18.144Z,14.53
2022-09-06T03:40:49.271Z,12.13
2022-09-06T03:43:17.626Z,12.70
2022-09-06T03:45:53.174Z,38.27
2022-09-06T03:48:21.932Z,73.93
2022-09-06T03:50:51.338Z,20.50
2022-09-06T03:53:18.943Z,81.43
2022-09-06T03:55:47.435Z,30.10
2022-09-06T03:58:15.212Z,21.43
2022-09-06T04:00:42.194Z,13.90
2022-09-06T04:03:09.150Z,27.90
2022-09-06T04:05:36.143Z,14.33
2022-09-06T04:08:03.353Z,15.10
2022-09-06T04:10:30.214Z,14.10
2022-09-06T04:12:57.113Z,13.53
2022-09-06T04:15:24.027Z,13.53
2022-09-06T04:17:50.878Z,12.80
2022-09-06T04:20:17.999Z,12.47
2022-09-06T04:22:44.861Z,13.00
2022-09-06T04:25:13.930Z,12.23
2022-09-06T04:27:40.852Z,12.87
2022-09-06T04:30:08.527Z,14.23
2022-09-06T04:32:35.490Z,13.77
2022-09-06T04:35:02.447Z,15.03
2022-09-06T04:37:29.311Z,12.50
2022-09-06T04:39:56.348Z,14.10
2022-09-06T04:42:23.279Z,17.20
2022-09-06T04:44:50.158Z,13.20
2022-09-06T04:47:19.233Z,12.80
2022-09-06T04:49:48.291Z,15.00
2022-09-06T04:52:16.023Z,16.23
2022-09-06T04:54:44.018Z,12.73
2022-09-06T04:57:10.958Z,12.83
2022-09-06T04:59:37.906Z,12.27
2022-09-06T05:02:04.937Z,11.83
2022-09-06T05:04:31.881Z,12.90
2022-09-06T05:07:07.104Z,11.67
2022-09-06T05:09:34.759Z,11.80
2022-09-06T05:12:01.914Z,12.50
2022-09-06T05:14:29.622Z,11.67
2022-09-06T05:16:56.897Z,12.80
2022-09-06T05:19:23.876Z,11.47
2022-09-06T05:21:53.831Z,13.50
2022-09-06T05:24:20.727Z,12.43
2022-09-06T05:26:47.658Z,11.90
2022-09-06T05:29:14.655Z,12.90
2022-09-06T05:31:41.634Z,11.87
2022-09-06T05:34:08.621Z,10.50
2022-09-06T05:36:35.561Z,12.40
2022-09-06T05:39:02.477Z,11.20
2022-09-06T05:41:29.426Z,11.13
2022-09-06T05:43:56.407Z,11.03
2022-09-06T05:46:23.459Z,10.03
2022-09-06T05:48:54.882Z,10.83
2022-09-06T05:51:21.926Z,9.90
2022-09-06T05:53:48.875Z,11.97
2022-09-06T05:56:16.948Z,11.43
2022-09-06T05:58:44.074Z,10.93
2022-09-06T06:01:20.289Z,11.33
2022-09-06T06:04:13.618Z,10.77
2022-09-06T06:06:40.508Z,11.40
2022-09-06T06:09:07.598Z,11.63
2022-09-06T06:11:34.574Z,11.37
2022-09-06T06:14:03.526Z,11.10
2022-09-06T06:16:30.918Z,10.90
2022-09-06T06:18:57.893Z,10.23
2022-09-06T06:21:26.861Z,10.00
2022-09-06T06:23:59.099Z,10.23
2022-09-06T06:26:27.322Z,9.67
2022-09-06T06:28:54.914Z,12.10
2022-09-06T06:31:22.449Z,9.97
2022-09-06T06:33:50.320Z,8.83
2022-09-06T06:36:17.179Z,8.27
2022-09-06T06:38:45.708Z,8.20
2022-09-06T06:41:18.491Z,8.30
2022-09-06T06:43:45.562Z,9.97
2022-09-06T06:46:18.174Z,8.37
2022-09-06T06:48:46.338Z,8.20
2022-09-06T06:51:16.820Z,7.77
2022-09-06T06:53:47.426Z,7.57
2022-09-06T06:56:27.446Z,6.97
2022-09-06T06:58:57.776Z,7.10
2022-09-06T07:01:26.507Z,7.07
2022-09-06T07:03:54.481Z,6.50
2022-09-06T07:09:09.194Z,6.77
2022-09-06T07:11:36.054Z,13.03
2022-09-06T07:14:02.952Z,7.50
2022-09-06T07:16:30.128Z,7.30
2022-09-06T07:18:57.079Z,7.03
2022-09-06T07:21:42.528Z,7.40
2022-09-06T07:24:10.491Z,7.00
2022-09-06T07:26:39.520Z,6.70
2022-09-06T07:29:08.308Z,6.40
2022-09-06T07:34:25.881Z,14.73
2022-09-06T07:36:56.788Z,10.40
2022-09-06T07:39:24.105Z,15.23
2022-09-06T07:41:51.075Z,8.10
2022-09-06T07:44:18.016Z,9.30
2022-09-06T07:46:45.108Z,9.17
2022-09-06T07:49:12.147Z,9.30
2022-09-06T07:51:39.019Z,9.10
2022-09-06T07:54:29.369Z,12.50
2022-09-06T07:56:53.852Z,9.10
2022-09-06T07:59:20.739Z,9.10
2022-09-06T08:01:48.354Z,9.03
2022-09-06T08:04:15.415Z,10.00
2022-09-06T08:09:36.037Z,9.70
2022-09-06T08:12:06.968Z,8.47
2022-09-06T08:14:34.993Z,9.13
2022-09-06T08:17:03.290Z,8.80
2022-09-06T08:19:30.275Z,9.93
2022-09-06T08:21:57.282Z,10.30
2022-09-06T08:24:24.181Z,8.60
2022-09-06T08:26:51.160Z,7.80
2022-09-06T08:29:23.507Z,13.73
2022-09-06T08:31:50.490Z,14.07
2022-09-06T08:34:17.537Z,8.43
2022-09-06T08:36:45.506Z,8.03
2022-09-06T08:39:12.618Z,11.43
2022-09-06T08:41:52.915Z,9.70
2022-09-06T08:47:23.068Z,8.43
2022-09-06T08:50:02.684Z,7.93
2022-09-06T08:53:13.587Z,11.43
2022-09-06T08:55:44.849Z,8.83
2022-09-06T08:58:20.375Z,8.80
2022-09-06T09:01:11.967Z,8.67
2022-09-06T09:03:42.025Z,8.50
2022-09-06T09:06:10.350Z,8.37
2022-09-06T09:09:08.183Z,8.13
2022-09-06T09:11:36.288Z,8.17
2022-09-06T09:14:12.343Z,8.20
2022-09-06T09:16:39.306Z,6.83
2022-09-06T09:19:06.827Z,8.50
2022-09-06T09:21:36.438Z,7.73
2022-09-06T09:24:09.089Z,10.50
2022-09-06T09:26:56.832Z,8.40
2022-09-06T09:29:27.943Z,7.17
2022-09-06T09:31:56.849Z,7.17
2022-09-06T09:34:39.788Z,8.07
2022-09-06T09:40:29.999Z,8.60
2022-09-06T09:43:11.211Z,7.20
2022-09-06T09:45:38.113Z,6.77
2022-09-06T09:48:37.231Z,9.53
2022-09-06T09:51:26.502Z,8.13
2022-09-06T09:54:01.739Z,7.43
2022-09-06T09:56:43.913Z,10.67
2022-09-06T09:59:44.375Z,6.67
2022-09-06T10:02:30.023Z,5.83
2022-09-06T10:05:04.050Z,6.30
2022-09-06T10:07:33.254Z,6.60
2022-09-06T10:10:07.383Z,7.57
2022-09-06T10:12:39.454Z,6.07
2022-09-06T10:15:11.892Z,7.13
2022-09-06T10:17:48.101Z,9.73
2022-09-06T10:20:16.512Z,9.83
2022-09-06T10:23:04.807Z,7.40
2022-09-06T10:25:39.884Z,6.83
2022-09-06T10:28:23.985Z,6.83
2022-09-06T10:31:09.457Z,7.33
2022-09-06T10:33:39.347Z,7.30
2022-09-06T10:36:06.466Z,7.00
2022-09-06T10:39:03.476Z,8.60
2022-09-06T10:41:49.522Z,12.83
2022-09-06T10:44:35.167Z,6.90
2022-09-06T10:47:11.130Z,7.10
2022-09-06T10:49:40.607Z,8.03
2022-09-06T10:52:13.371Z,7.40
2022-09-06T10:54:42.068Z,7.57
2022-09-06T11:00:21.766Z,8.40
2022-09-06T11:05:58.264Z,8.30
2022-09-06T11:11:21.470Z,7.97
2022-09-06T11:13:48.454Z,8.50
2022-09-06T11:16:24.342Z,7.90
2022-09-06T11:19:17.852Z,8.13
2022-09-06T11:22:12.899Z,7.37
2022-09-06T11:24:48.514Z,15.33
2022-09-06T11:27:33.487Z,6.73
2022-09-06T11:30:03.178Z,7.50
2022-09-06T11:32:33.291Z,7.77
2022-09-06T11:35:04.706Z,6.60
2022-09-06T11:37:42.916Z,7.20
2022-09-06T11:40:29.494Z,7.70
2022-09-06T11:42:58.737Z,9.90
2022-09-06T11:45:50.334Z,7.70
2022-09-06T11:48:26.630Z,6.70
2022-09-06T11:50:59.823Z,6.40
2022-09-06T11:53:57.359Z,7.20
2022-09-06T11:57:00.689Z,7.90
2022-09-06T11:59:33.349Z,7.07
2022-09-06T12:02:07.582Z,7.13
2022-09-06T12:05:00.375Z,6.67
2022-09-06T12:07:32.527Z,6.93
2022-09-06T12:10:22.893Z,6.70
2022-09-06T12:12:52.613Z,6.17
2022-09-06T12:15:28.520Z,6.33
2022-09-06T12:17:56.740Z,6.43
2022-09-06T12:20:48.130Z,6.40
2022-09-06T12:23:36.608Z,6.80
2022-09-06T12:26:11.410Z,7.00
2022-09-06T12:28:49.813Z,6.40
2022-09-06T12:31:36.877Z,6.43
2022-09-06T12:34:31.296Z,6.63
2022-09-06T12:37:07.268Z,6.60
2022-09-06T12:39:34.876Z,6.40
2022-09-06T12:42:10.714Z,6.53
2022-09-06T12:44:43.030Z,6.60
2022-09-06T12:47:21.337Z,6.50
2022-09-06T12:49:48.188Z,7.13
2022-09-06T12:52:19.507Z,6.73
2022-09-06T12:54:49.964Z,7.10
2022-09-06T12:57:26.038Z,7.30
2022-09-06T12:59:57.610Z,7.60
2022-09-06T13:02:32.844Z,6.50
2022-09-06T13:05:07.175Z,6.60
2022-09-06T13:07:38.239Z,12.83
2022-09-06T13:10:05.335Z,8.57
2022-09-06T13:12:39.410Z,7.10
2022-09-06T13:15:17.650Z,6.60
2022-09-06T13:17:44.539Z,7.67
2022-09-06T13:20:30.461Z,8.17
2022-09-06T13:23:13.058Z,7.93
2022-09-06T13:25:50.914Z,7.00
2022-09-06T13:28:32.510Z,7.80
2022-09-06T13:31:18.594Z,8.10
2022-09-06T13:33:54.649Z,7.83
2022-09-06T13:36:24.564Z,8.23
2022-09-06T13:38:51.459Z,7.70
2022-09-06T13:41:27.582Z,7.13
2022-09-06T13:44:28.407Z,8.50
2022-09-06T13:46:55.440Z,6.97
2022-09-06T13:49:25.820Z,7.57
2022-09-06T13:51:53.932Z,7.00
2022-09-06T13:54:22.658Z,6.80
2022-09-06T13:56:50.436Z,7.50
2022-09-06T13:59:18.266Z,7.20
2022-09-06T14:01:47.860Z,5.97
2022-09-06T14:04:21.319Z,8.00
2022-09-06T14:06:49.291Z,8.87
2022-09-06T14:09:16.345Z,7.30
2022-09-06T14:11:48.045Z,6.90
2022-09-06T14:14:17.771Z,6.60
2022-09-06T14:16:46.011Z,5.70
2022-09-06T14:19:13.182Z,6.07
2022-09-06T14:21:40.516Z,7.10
2022-09-06T14:24:07.544Z,6.50
2022-09-06T14:26:36.191Z,5.53
2022-09-06T14:29:03.614Z,4.80
2022-09-06T14:31:32.672Z,5.63
2022-09-06T14:34:00.725Z,5.27
2022-09-06T14:36:29.551Z,6.20
2022-09-06T14:39:01.091Z,5.37
2022-09-06T14:41:28.113Z,7.70
2022-09-06T14:43:57.350Z,4.80
2022-09-06T14:46:26.084Z,5.27
2022-09-06T14:49:06.120Z,5.67
2022-09-06T14:51:33.246Z,4.80
2022-09-06T14:54:04.753Z,4.80
2022-09-06T14:56:31.762Z,5.47
2022-09-06T14:59:00.104Z,5.27
2022-09-06T15:01:35.731Z,5.80
2022-09-06T15:04:07.081Z,5.33
2022-09-06T15:06:37.005Z,6.20
2022-09-06T15:09:07.667Z,7.43
2022-09-06T15:11:39.406Z,5.90
2022-09-06T15:14:12.283Z,6.40
2022-09-06T15:16:39.404Z,6.07
2022-09-06T15:19:07.849Z,6.10
2022-09-06T15:21:34.815Z,6.20
2022-09-06T15:24:02.637Z,6.73
2022-09-06T15:26:30.426Z,7.30
2022-09-06T15:28:57.451Z,6.73
2022-09-06T15:31:24.462Z,6.17
2022-09-06T15:33:51.980Z,7.10
2022-09-06T15:36:19.587Z,6.10
2022-09-06T15:38:48.990Z,6.70
2022-09-06T15:41:18.757Z,6.67
2022-09-06T15:43:48.411Z,7.00
2022-09-06T15:46:20.889Z,6.90
2022-09-06T15:48:50.100Z,5.83
2022-09-06T15:51:19.990Z,7.47
2022-09-06T15:53:47.469Z,6.67
2022-09-06T15:56:16.563Z,13.53
2022-09-06T15:58:43.742Z,7.70
2022-09-06T16:01:15.994Z,6.10
2022-09-06T16:03:45.763Z,7.00
2022-09-06T16:06:31.656Z,6.67
2022-09-06T16:09:10.248Z,6.43
2022-09-06T16:11:37.778Z,7.07
2022-09-06T16:14:06.983Z,6.57
2022-09-06T16:16:35.248Z,7.87
2022-09-06T16:19:02.543Z,7.60
2022-09-06T16:21:32.327Z,7.23
2022-09-06T16:24:02.135Z,7.23
2022-09-06T16:26:32.375Z,6.90
2022-09-06T16:29:02.028Z,7.20
2022-09-06T16:31:29.917Z,7.47
2022-09-06T16:33:58.001Z,7.73
2022-09-06T16:36:26.279Z,7.27
2022-09-06T16:38:53.291Z,8.10
2022-09-06T16:41:22.413Z,10.27
2022-09-06T16:43:49.566Z,7.13
2022-09-06T16:46:16.737Z,9.63
2022-09-06T16:48:43.810Z,10.93
2022-09-06T16:51:13.783Z,10.60
2022-09-06T16:53:44.176Z,8.83
2022-09-06T16:56:13.380Z,10.20
2022-09-06T16:58:41.870Z,8.50
2022-09-06T17:01:09.976Z,7.60
2022-09-06T17:03:37.660Z,6.97
2022-09-06T17:06:06.322Z,8.30
2022-09-06T17:08:34.806Z,7.73
2022-09-06T17:11:06.829Z,7.97
2022-09-06T17:13:34.234Z,8.33
2022-09-06T17:16:22.237Z,7.63
2022-09-06T17:18:52.599Z,8.03
2022-09-06T17:21:21.534Z,7.57
2022-09-06T17:23:49.566Z,8.43
2022-09-06T17:26:18.610Z,7.93
2022-09-06T17:28:45.613Z,7.70
2022-09-06T17:31:13.049Z,12.70
2022-09-06T17:33:40.175Z,8.57
2022-09-06T17:36:13.023Z,9.20
2022-09-06T17:38:42.707Z,8.60
2022-09-06T17:41:24.220Z,9.53
2022-09-06T17:43:53.863Z,8.00
2022-09-06T17:46:26.448Z,7.93
2022-09-06T17:48:56.166Z,8.33
2022-09-06T17:51:24.003Z,8.10
2022-09-06T17:53:52.183Z,7.83
2022-09-06T17:56:20.354Z,7.70
2022-09-06T17:58:59.636Z,7.83
2022-09-06T18:01:29.676Z,7.87
2022-09-06T18:03:56.961Z,7.77
2022-09-06T18:06:25.542Z,8.77
2022-09-06T18:08:54.890Z,12.43
2022-09-06T18:11:28.007Z,8.23
2022-09-06T18:14:00.664Z,9.17
2022-09-06T18:16:29.033Z,10.10
2022-09-06T18:18:58.463Z,9.07
2022-09-06T18:21:28.088Z,9.50
2022-09-06T18:23:55.839Z,9.50
2022-09-06T18:26:22.864Z,9.33
2022-09-06T18:28:50.554Z,11.17
2022-09-06T18:31:19.815Z,11.07
2022-09-06T18:33:47.114Z,9.03
2022-09-06T18:36:18.477Z,8.93
2022-09-06T18:38:45.662Z,17.73
2022-09-06T18:41:34.378Z,8.80
2022-09-06T18:44:03.283Z,9.63
2022-09-06T18:46:38.199Z,9.10
2022-09-06T18:49:06.271Z,9.07
2022-09-06T18:51:34.782Z,10.47
2022-09-06T18:54:05.379Z,14.27
2022-09-06T18:56:32.680Z,10.00
2022-09-06T18:59:01.014Z,9.50
2022-09-06T19:01:30.338Z,8.63
2022-09-06T19:03:58.553Z,8.13
2022-09-06T19:06:27.246Z,8.17
2022-09-06T19:08:57.926Z,7.77
2022-09-06T19:11:27.429Z,9.93
2022-09-06T19:13:56.381Z,10.40
2022-09-06T19:16:24.800Z,8.03
2022-09-06T19:18:55.106Z,8.27
2022-09-06T19:21:25.368Z,7.03
2022-09-06T19:23:58.386Z,7.07
2022-09-06T19:26:27.107Z,8.20
2022-09-06T19:28:56.553Z,6.80
2022-09-06T19:31:25.692Z,6.43
2022-09-06T19:33:53.845Z,6.43
2022-09-06T19:36:22.298Z,5.93
2022-09-06T19:39:04.327Z,4.77
2022-09-06T19:41:33.547Z,5.10
2022-09-06T19:44:01.675Z,5.57
2022-09-06T19:46:28.940Z,4.17
2022-09-06T19:48:56.441Z,8.23
2022-09-06T19:51:24.667Z,4.30
2022-09-06T19:53:54.095Z,6.27
2022-09-06T19:56:41.361Z,5.33
2022-09-06T19:59:12.165Z,6.30
2022-09-06T20:01:40.779Z,5.80
2022-09-06T20:04:11.107Z,4.50
2022-09-06T20:06:38.854Z,3.83
2022-09-06T20:09:09.083Z,3.93
2022-09-06T20:11:37.230Z,3.87
2022-09-06T20:14:04.559Z,4.40
2022-09-06T20:16:31.846Z,4.30
2022-09-06T20:18:59.783Z,4.73
2022-09-06T20:21:28.018Z,3.93
2022-09-06T20:23:57.155Z,5.13
2022-09-06T20:26:25.409Z,4.13
2022-09-06T20:28:57.108Z,4.67
2022-09-06T20:31:24.865Z,4.10
2022-09-06T20:33:51.936Z,5.20
2022-09-06T20:36:19.867Z,4.00
2022-09-06T20:38:48.161Z,4.60
2022-09-06T20:41:18.225Z,4.30
2022-09-06T20:43:46.601Z,4.07
2022-09-06T20:46:16.455Z,4.50
2022-09-06T20:48:45.323Z,4.40
2022-09-06T20:51:23.469Z,4.90
2022-09-06T20:53:58.675Z,4.50
2022-09-06T20:56:47.178Z,4.47
2022-09-06T20:59:14.539Z,4.00
2022-09-06T21:01:46.352Z,4.00
2022-09-06T21:04:16.098Z,6.50
2022-09-06T21:06:43.339Z,3.90
2022-09-06T21:09:13.257Z,4.40
2022-09-06T21:11:41.118Z,3.97
2022-09-06T21:14:09.407Z,4.33
2022-09-06T21:16:37.805Z,4.63
2022-09-06T21:19:07.059Z,5.00
2022-09-06T21:21:34.976Z,4.50
2022-09-06T21:24:02.873Z,4.30
2022-09-06T21:26:29.903Z,5.20
2022-09-06T21:28:57.058Z,4.33
2022-09-06T21:31:26.345Z,4.90
2022-09-06T21:33:59.383Z,5.73
2022-09-06T21:36:31.501Z,4.47
2022-09-06T21:39:04.454Z,4.17
2022-09-06T21:41:31.958Z,4.90
2022-09-06T21:44:00.642Z,4.13
2022-09-06T21:46:32.880Z,6.73
2022-09-06T21:49:03.615Z,5.33
2022-09-06T21:51:31.067Z,4.80
2022-09-06T21:53:58.395Z,4.83
2022-09-06T21:56:25.825Z,4.70
2022-09-06T21:58:57.363Z,9.80
2022-09-06T22:01:26.546Z,4.83
2022-09-06T22:03:53.955Z,7.20
2022-09-06T22:06:28.720Z,5.00
2022-09-06T22:08:57.694Z,4.43
2022-09-06T22:11:32.953Z,6.97
2022-09-06T22:14:05.711Z,6.33
2022-09-06T22:16:35.094Z,5.17
2022-09-06T22:19:04.875Z,4.57
2022-09-06T22:21:32.066Z,5.83
2022-09-06T22:24:01.573Z,4.53
2022-09-06T22:26:30.551Z,5.17
2022-09-06T22:29:00.145Z,4.73
2022-09-06T22:31:29.444Z,6.33
2022-09-06T22:33:57.372Z,4.77
2022-09-06T22:36:25.574Z,4.60
2022-09-06T22:38:57.243Z,5.03
2022-09-06T22:41:25.802Z,4.93
2022-09-06T22:43:52.794Z,4.80
2022-09-06T22:46:20.346Z,7.43
2022-09-06T22:48:47.809Z,8.10
2022-09-06T22:51:14.943Z,6.37
2022-09-06T22:53:41.923Z,5.07
2022-09-06T22:56:09.047Z,5.67
2022-09-06T22:58:36.046Z,5.37
2022-09-06T23:01:08.900Z,6.60
2022-09-06T23:03:36.322Z,6.50
2022-09-06T23:06:03.863Z,6.67
2022-09-06T23:08:31.728Z,7.13
2022-09-06T23:11:03.294Z,6.40
2022-09-06T23:13:30.936Z,6.60
2022-09-06T23:16:03.266Z,6.83
2022-09-06T23:18:30.408Z,6.50
2022-09-06T23:20:57.480Z,7.30
2022-09-06T23:23:24.387Z,7.00
2022-09-06T23:25:51.661Z,6.57
2022-09-06T23:28:18.563Z,6.77
2022-09-06T23:30:46.055Z,7.13
2022-09-06T23:33:12.933Z,7.70
2022-09-06T23:35:40.246Z,6.83
2022-09-06T23:38:07.377Z,10.03
2022-09-06T23:40:34.275Z,6.20
2022-09-06T23:43:01.156Z,5.90
2022-09-06T23:45:28.132Z,5.80
2022-09-06T23:47:55.054Z,6.80
2022-09-06T23:50:21.948Z,10.53
2022-09-06T23:52:48.867Z,8.40
2022-09-06T23:55:15.766Z,7.53
2022-09-06T23:57:42.707Z,6.63
